createdAt,value
2018-07-08T00:00:39.308Z,995.08
2018-07-08T00:01:39.316Z,995.11
2018-07-08T00:02:39.316Z,995.1
2018-07-08T00:03:39.319Z,995.12
2018-07-08T00:04:39.317Z,995.1
2018-07-08T00:05:39.322Z,995.05
2018-07-08T00:06:39.318Z,995.1
2018-07-08T00:07:39.318Z,995.1
2018-07-08T00:08:39.320Z,995.11
2018-07-08T00:09:39.325Z,995.08
2018-07-08T00:10:39.324Z,995.11
2018-07-08T00:11:39.326Z,995.1
2018-07-08T00:12:39.330Z,995.07
2018-07-08T00:13:39.329Z,995.1
2018-07-08T00:14:39.342Z,995.12
2018-07-08T00:15:39.332Z,995.1
2018-07-08T00:16:39.334Z,995.11
2018-07-08T00:17:39.331Z,995.11
2018-07-08T00:18:39.335Z,995.13
2018-07-08T00:19:39.340Z,995.14
2018-07-08T00:20:39.340Z,995.13
2018-07-08T00:21:39.364Z,995.09
2018-07-08T00:22:39.343Z,995.14
2018-07-08T00:23:39.345Z,995.14
2018-07-08T00:24:39.349Z,995.13
2018-07-08T00:25:39.346Z,995.14
2018-07-08T00:26:39.349Z,995.13
2018-07-08T00:27:39.352Z,995.17
2018-07-08T00:28:39.361Z,995.13
2018-07-08T00:29:39.357Z,995.14
2018-07-08T00:30:39.389Z,995.13
2018-07-08T00:31:39.357Z,995.18
2018-07-08T00:32:39.357Z,995.16
2018-07-08T00:33:39.373Z,995.18
2018-07-08T00:34:39.361Z,995.17
2018-07-08T00:35:39.362Z,995.15
2018-07-08T00:36:39.364Z,995.13
2018-07-08T00:37:39.363Z,995.2
2018-07-08T00:38:39.363Z,995.15
2018-07-08T00:39:39.369Z,995.17
2018-07-08T00:40:39.368Z,995.15
2018-07-08T00:41:39.371Z,995.14
2018-07-08T00:42:39.372Z,995.19
2018-07-08T00:43:39.375Z,995.18
2018-07-08T00:44:39.375Z,995.22
2018-07-08T00:45:40.326Z,995.21
2018-07-08T00:46:39.378Z,995.18
2018-07-08T00:47:39.378Z,995.2
2018-07-08T00:48:39.383Z,995.16
2018-07-08T00:49:39.380Z,995.15
2018-07-08T00:50:39.386Z,995.15
2018-07-08T00:51:39.381Z,995.16
2018-07-08T00:52:39.383Z,995.18
2018-07-08T00:53:39.385Z,995.16
2018-07-08T00:54:39.394Z,995.16
2018-07-08T00:55:39.388Z,995.2
2018-07-08T00:56:39.391Z,995.19
2018-07-08T00:57:39.397Z,995.17
2018-07-08T00:58:39.405Z,995.2
2018-07-08T00:59:39.402Z,995.2
2018-07-08T01:00:39.399Z,995.22
2018-07-08T01:01:39.419Z,995.22
2018-07-08T01:02:39.402Z,995.24
2018-07-08T01:03:39.399Z,995.23
2018-07-08T01:04:39.406Z,995.25
2018-07-08T01:05:39.403Z,995.26
2018-07-08T01:06:39.402Z,995.26
2018-07-08T01:07:39.404Z,995.26
2018-07-08T01:08:39.451Z,995.24
2018-07-08T01:09:39.406Z,995.26
2018-07-08T01:10:39.411Z,995.25
2018-07-08T01:11:39.409Z,995.31
2018-07-08T01:12:39.412Z,995.26
2018-07-08T01:13:39.412Z,995.27
2018-07-08T01:14:39.421Z,995.31
2018-07-08T01:15:39.413Z,995.29
2018-07-08T01:16:39.412Z,995.27
2018-07-08T01:17:39.416Z,995.27
2018-07-08T01:18:39.418Z,995.25
2018-07-08T01:19:39.417Z,995.27
2018-07-08T01:20:39.419Z,995.25
2018-07-08T01:21:39.423Z,995.26
2018-07-08T01:22:39.419Z,995.28
2018-07-08T01:23:39.425Z,995.3
2018-07-08T01:24:39.424Z,995.26
2018-07-08T01:25:39.425Z,995.29
2018-07-08T01:26:39.426Z,995.27
2018-07-08T01:27:39.427Z,995.27
2018-07-08T01:28:39.434Z,995.29
2018-07-08T01:29:39.427Z,995.33
2018-07-08T01:30:39.437Z,995.29
2018-07-08T01:31:39.432Z,995.33
2018-07-08T01:32:39.432Z,995.29
2018-07-08T01:33:39.431Z,995.27
2018-07-08T01:34:39.432Z,995.27
2018-07-08T01:35:39.441Z,995.25
2018-07-08T01:36:39.434Z,995.29
2018-07-08T01:37:39.435Z,995.29
2018-07-08T01:38:39.438Z,995.26
2018-07-08T01:39:39.449Z,995.26
2018-07-08T01:40:39.442Z,995.28
2018-07-08T01:41:39.438Z,995.29
2018-07-08T01:42:39.441Z,995.27
2018-07-08T01:43:39.440Z,995.24
2018-07-08T01:44:39.445Z,995.26
2018-07-08T01:45:39.442Z,995.29
2018-07-08T01:46:39.444Z,995.26
2018-07-08T01:47:39.446Z,995.26
2018-07-08T01:48:39.447Z,995.28
2018-07-08T01:49:39.446Z,995.25
2018-07-08T01:50:39.446Z,995.22
2018-07-08T01:51:39.451Z,995.21
2018-07-08T01:52:39.456Z,995.22
2018-07-08T01:53:39.448Z,995.24
2018-07-08T01:54:39.450Z,995.27
2018-07-08T01:55:39.454Z,995.26
2018-07-08T01:56:39.453Z,995.28
2018-07-08T01:57:39.454Z,995.24
2018-07-08T01:58:39.454Z,995.28
2018-07-08T01:59:39.459Z,995.28
2018-07-08T02:00:39.455Z,995.29
2018-07-08T02:01:39.473Z,995.24
2018-07-08T02:02:39.460Z,995.27
2018-07-08T02:03:39.466Z,995.25
2018-07-08T02:04:39.461Z,995.22
2018-07-08T02:05:39.461Z,995.24
2018-07-08T02:06:39.462Z,995.25
2018-07-08T02:07:39.464Z,995.24
2018-07-08T02:08:39.464Z,995.25
2018-07-08T02:09:39.464Z,995.25
2018-07-08T02:10:39.470Z,995.24
2018-07-08T02:11:39.466Z,995.25
2018-07-08T02:12:39.468Z,995.26
2018-07-08T02:13:39.469Z,995.23
2018-07-08T02:14:39.467Z,995.25
2018-07-08T02:15:39.471Z,995.27
2018-07-08T02:16:39.476Z,995.23
2018-07-08T02:17:39.471Z,995.26
2018-07-08T02:18:39.475Z,995.27
2018-07-08T02:19:39.473Z,995.26
2018-07-08T02:20:39.474Z,995.26
2018-07-08T02:21:39.476Z,995.24
2018-07-08T02:22:39.476Z,995.27
2018-07-08T02:23:39.479Z,995.26
2018-07-08T02:24:39.478Z,995.25
2018-07-08T02:25:39.485Z,995.29
2018-07-08T02:26:39.484Z,995.31
2018-07-08T02:27:39.483Z,995.33
2018-07-08T02:28:39.482Z,995.29
2018-07-08T02:29:39.483Z,995.32
2018-07-08T02:30:39.484Z,995.32
2018-07-08T02:31:39.492Z,995.32
2018-07-08T02:32:39.486Z,995.34
2018-07-08T02:33:39.491Z,995.35
2018-07-08T02:34:39.497Z,995.32
2018-07-08T02:35:39.496Z,995.29
2018-07-08T02:36:39.497Z,995.34
2018-07-08T02:37:39.495Z,995.32
2018-07-08T02:38:39.512Z,995.33
2018-07-08T02:39:39.504Z,995.32
2018-07-08T02:40:39.583Z,995.3
2018-07-08T02:41:39.505Z,995.3
2018-07-08T02:42:39.515Z,995.28
2018-07-08T02:43:39.509Z,995.28
2018-07-08T02:44:39.507Z,995.27
2018-07-08T02:45:39.512Z,995.3
2018-07-08T02:46:39.511Z,995.29
2018-07-08T02:47:39.509Z,995.28
2018-07-08T02:48:39.508Z,995.29
2018-07-08T02:49:39.514Z,995.34
2018-07-08T02:50:39.529Z,995.33
2018-07-08T02:51:39.512Z,995.31
2018-07-08T02:52:39.509Z,995.33
2018-07-08T02:53:39.519Z,995.34
2018-07-08T02:54:39.515Z,995.35
2018-07-08T02:55:39.513Z,995.35
2018-07-08T02:56:39.514Z,995.37
2018-07-08T02:57:39.514Z,995.35
2018-07-08T02:58:39.519Z,995.42
2018-07-08T02:59:39.522Z,995.36
2018-07-08T03:00:39.519Z,995.38
2018-07-08T03:01:39.531Z,995.38
2018-07-08T03:02:39.527Z,995.39
2018-07-08T03:03:39.540Z,995.46
2018-07-08T03:04:39.524Z,995.43
2018-07-08T03:05:39.523Z,995.47
2018-07-08T03:06:39.529Z,995.42
2018-07-08T03:07:39.529Z,995.4
2018-07-08T03:08:39.532Z,995.37
2018-07-08T03:09:39.530Z,995.36
2018-07-08T03:10:39.531Z,995.36
2018-07-08T03:11:39.532Z,995.32
2018-07-08T03:12:39.533Z,995.34
2018-07-08T03:13:39.548Z,995.31
2018-07-08T03:14:39.535Z,995.27
2018-07-08T03:15:39.538Z,995.33
2018-07-08T03:16:40.590Z,995.32
2018-07-08T03:17:39.541Z,995.31
2018-07-08T03:18:39.541Z,995.28
2018-07-08T03:19:39.541Z,995.31
2018-07-08T03:20:39.543Z,995.27
2018-07-08T03:21:39.550Z,995.31
2018-07-08T03:22:39.550Z,995.27
2018-07-08T03:23:39.547Z,995.3
2018-07-08T03:24:39.544Z,995.28
2018-07-08T03:25:39.549Z,995.26
2018-07-08T03:26:39.548Z,995.26
2018-07-08T03:27:39.550Z,995.29
2018-07-08T03:28:39.551Z,995.29
2018-07-08T03:29:39.553Z,995.32
2018-07-08T03:30:39.575Z,995.33
2018-07-08T03:31:39.555Z,995.3
2018-07-08T03:32:39.555Z,995.34
2018-07-08T03:33:39.559Z,995.31
2018-07-08T03:34:39.561Z,995.29
2018-07-08T03:35:39.567Z,995.36
2018-07-08T03:36:39.561Z,995.33
2018-07-08T03:37:39.571Z,995.3
2018-07-08T03:38:39.566Z,995.3
2018-07-08T03:39:39.571Z,995.3
2018-07-08T03:40:39.569Z,995.27
2018-07-08T03:41:39.571Z,995.3
2018-07-08T03:42:39.570Z,995.29
2018-07-08T03:43:39.571Z,995.29
2018-07-08T03:44:39.574Z,995.33
2018-07-08T03:45:39.582Z,995.33
2018-07-08T03:46:39.571Z,995.33
2018-07-08T03:47:39.573Z,995.37
2018-07-08T03:48:39.576Z,995.37
2018-07-08T03:49:39.579Z,995.43
2018-07-08T03:50:39.577Z,995.42
2018-07-08T03:51:39.597Z,995.42
2018-07-08T03:52:39.582Z,995.4
2018-07-08T03:53:39.579Z,995.37
2018-07-08T03:54:39.582Z,995.4
2018-07-08T03:55:39.584Z,995.35
2018-07-08T03:56:39.585Z,995.37
2018-07-08T03:57:39.585Z,995.38
2018-07-08T03:58:39.586Z,995.39
2018-07-08T03:59:39.592Z,995.42
2018-07-08T04:00:39.588Z,995.38
2018-07-08T04:01:39.610Z,995.38
2018-07-08T04:02:39.590Z,995.4
2018-07-08T04:03:39.593Z,995.34
2018-07-08T04:04:39.593Z,995.4
2018-07-08T04:05:39.594Z,995.37
2018-07-08T04:06:39.596Z,995.36
2018-07-08T04:07:39.604Z,995.38
2018-07-08T04:08:39.596Z,995.4
2018-07-08T04:09:39.611Z,995.44
2018-07-08T04:10:39.605Z,995.42
2018-07-08T04:11:39.608Z,995.43
2018-07-08T04:12:39.605Z,995.47
2018-07-08T04:13:39.609Z,995.45
2018-07-08T04:14:39.608Z,995.45
2018-07-08T04:15:39.610Z,995.45
2018-07-08T04:16:39.625Z,995.48
2018-07-08T04:17:39.612Z,995.45
2018-07-08T04:18:39.610Z,995.54
2018-07-08T04:19:39.615Z,995.42
2018-07-08T04:20:39.613Z,995.43
2018-07-08T04:21:39.616Z,995.42
2018-07-08T04:22:39.619Z,995.43
2018-07-08T04:23:39.615Z,995.37
2018-07-08T04:24:39.619Z,995.42
2018-07-08T04:25:39.618Z,995.42
2018-07-08T04:26:39.621Z,995.48
2018-07-08T04:27:39.622Z,995.54
2018-07-08T04:28:39.624Z,995.5
2018-07-08T04:29:39.631Z,995.54
2018-07-08T04:30:39.626Z,995.51
2018-07-08T04:31:39.628Z,995.49
2018-07-08T04:32:39.635Z,995.52
2018-07-08T04:33:39.632Z,995.6
2018-07-08T04:34:39.636Z,995.56
2018-07-08T04:35:39.640Z,995.61
2018-07-08T04:36:39.640Z,995.58
2018-07-08T04:37:39.641Z,995.55
2018-07-08T04:38:39.667Z,995.56
2018-07-08T04:39:39.649Z,995.62
2018-07-08T04:40:39.652Z,995.62
2018-07-08T04:41:39.658Z,995.62
2018-07-08T04:42:39.657Z,995.61
2018-07-08T04:43:39.663Z,995.6
2018-07-08T04:44:39.665Z,995.57
2018-07-08T04:45:39.717Z,995.63
2018-07-08T04:46:39.668Z,995.62
2018-07-08T04:47:39.671Z,995.65
2018-07-08T04:48:39.674Z,995.62
2018-07-08T04:49:39.676Z,995.63
2018-07-08T04:50:39.747Z,995.6
2018-07-08T04:51:39.685Z,995.57
2018-07-08T04:52:39.689Z,995.5
2018-07-08T04:53:39.725Z,995.53
2018-07-08T04:54:39.697Z,995.49
2018-07-08T04:55:39.726Z,995.52
2018-07-08T04:56:39.785Z,995.5
2018-07-08T04:57:39.791Z,995.5
2018-07-08T04:58:39.722Z,995.55
2018-07-08T04:59:39.712Z,995.56
2018-07-08T05:00:39.717Z,995.58
2018-07-08T05:01:39.721Z,995.58
2018-07-08T05:02:39.722Z,995.58
2018-07-08T05:03:39.730Z,995.57
2018-07-08T05:04:39.738Z,995.59
2018-07-08T05:05:39.819Z,995.59
2018-07-08T05:06:39.736Z,995.63
2018-07-08T05:07:39.737Z,995.63
2018-07-08T05:08:39.740Z,995.63
2018-07-08T05:09:39.760Z,995.64
2018-07-08T05:10:39.748Z,995.67
2018-07-08T05:11:39.756Z,995.66
2018-07-08T05:12:39.763Z,995.63
2018-07-08T05:13:39.758Z,995.64
2018-07-08T05:14:39.759Z,995.65
2018-07-08T05:15:39.763Z,995.64
2018-07-08T05:16:39.781Z,995.67
2018-07-08T05:17:39.781Z,995.63
2018-07-08T05:18:39.782Z,995.65
2018-07-08T05:19:39.785Z,995.61
2018-07-08T05:20:39.788Z,995.61
2018-07-08T05:21:39.782Z,995.62
2018-07-08T05:22:39.786Z,995.62
2018-07-08T05:23:39.788Z,995.62
2018-07-08T05:24:39.795Z,995.61
2018-07-08T05:25:39.800Z,995.65
2018-07-08T05:26:39.798Z,995.62
2018-07-08T05:27:39.803Z,995.61
2018-07-08T05:28:39.805Z,995.62
2018-07-08T05:29:39.815Z,995.65
2018-07-08T05:30:39.812Z,995.66
2018-07-08T05:31:39.814Z,995.67
2018-07-08T05:32:39.817Z,995.69
2018-07-08T05:33:39.821Z,995.73
2018-07-08T05:34:39.822Z,995.74
2018-07-08T05:35:39.841Z,995.75
2018-07-08T05:36:39.981Z,995.73
2018-07-08T05:37:39.834Z,995.75
2018-07-08T05:38:39.834Z,995.76
2018-07-08T05:39:39.839Z,995.79
2018-07-08T05:40:39.844Z,995.77
2018-07-08T05:41:39.848Z,995.74
2018-07-08T05:42:39.849Z,995.79
2018-07-08T05:43:39.851Z,995.79
2018-07-08T05:44:39.861Z,995.75
2018-07-08T05:45:39.859Z,995.74
2018-07-08T05:46:39.860Z,995.75
2018-07-08T05:47:40.677Z,995.75
2018-07-08T05:48:39.866Z,995.76
2018-07-08T05:49:39.868Z,995.76
2018-07-08T05:50:39.924Z,995.79
2018-07-08T05:51:39.873Z,995.78
2018-07-08T05:52:39.886Z,995.78
2018-07-08T05:53:39.884Z,995.8
2018-07-08T05:54:39.885Z,995.79
2018-07-08T05:55:39.899Z,995.82
2018-07-08T05:56:39.890Z,995.82
2018-07-08T05:57:39.895Z,995.83
2018-07-08T05:58:39.896Z,995.82
2018-07-08T05:59:39.898Z,995.88
2018-07-08T06:00:39.911Z,995.87
2018-07-08T06:01:39.905Z,995.87
2018-07-08T06:02:39.910Z,995.91
2018-07-08T06:03:39.911Z,995.96
2018-07-08T06:04:40.030Z,995.9
2018-07-08T06:05:39.927Z,995.93
2018-07-08T06:06:39.924Z,995.93
2018-07-08T06:07:39.925Z,995.91
2018-07-08T06:08:39.928Z,995.97
2018-07-08T06:09:39.932Z,995.94
2018-07-08T06:10:39.938Z,995.95
2018-07-08T06:11:39.959Z,995.93
2018-07-08T06:12:39.948Z,995.88
2018-07-08T06:13:39.956Z,995.88
2018-07-08T06:14:39.958Z,995.91
2018-07-08T06:24:48.488Z,995.84
2018-07-08T06:25:48.525Z,995.86
2018-07-08T06:26:48.500Z,995.87
2018-07-08T06:27:48.500Z,995.84
2018-07-08T06:28:48.506Z,995.88
2018-07-08T06:29:48.510Z,995.92
2018-07-08T06:30:48.525Z,995.9
2018-07-08T06:31:48.632Z,995.93
2018-07-08T06:32:48.532Z,995.93
2018-07-08T06:33:48.536Z,995.93
2018-07-08T06:34:48.539Z,995.88
2018-07-08T06:35:48.547Z,995.9
2018-07-08T06:36:48.553Z,995.9
2018-07-08T06:37:48.561Z,995.91
2018-07-08T06:38:48.565Z,995.9
2018-07-08T06:39:48.573Z,995.91
2018-07-08T06:40:48.580Z,995.95
2018-07-08T06:41:48.588Z,995.93
2018-07-08T06:42:48.595Z,995.83
2018-07-08T06:43:48.599Z,995.84
2018-07-08T06:44:48.609Z,995.82
2018-07-08T06:45:48.615Z,995.83
2018-07-08T06:46:48.625Z,995.85
2018-07-08T06:47:48.633Z,995.85
2018-07-08T06:48:48.637Z,995.82
2018-07-08T06:49:48.659Z,995.87
2018-07-08T06:50:48.651Z,995.88
2018-07-08T06:51:48.665Z,995.86
2018-07-08T06:52:48.668Z,995.82
2018-07-08T06:53:48.671Z,995.88
2018-07-08T06:54:48.691Z,995.84
2018-07-08T06:55:48.692Z,995.85
2018-07-08T06:56:48.696Z,995.85
2018-07-08T06:57:48.801Z,995.83
2018-07-08T06:58:48.709Z,995.86
2018-07-08T06:59:48.717Z,995.85
2018-07-08T07:00:48.725Z,995.86
2018-07-08T07:01:48.732Z,995.83
2018-07-08T07:02:48.743Z,995.89
2018-07-08T07:03:48.746Z,995.86
2018-07-08T07:04:48.756Z,995.84
2018-07-08T07:05:48.764Z,995.88
2018-07-08T07:06:48.869Z,995.88
2018-07-08T07:07:48.859Z,995.86
2018-07-08T07:08:48.874Z,995.87
2018-07-08T07:09:48.799Z,995.86
2018-07-08T07:10:48.809Z,995.83
2018-07-08T07:11:48.811Z,995.86
2018-07-08T07:12:48.824Z,995.87
2018-07-08T07:13:48.830Z,995.87
2018-07-08T07:14:48.845Z,995.87
2018-07-08T07:15:48.843Z,995.83
2018-07-08T07:16:48.850Z,995.81
2018-07-08T07:17:48.859Z,995.81
2018-07-08T07:18:48.869Z,995.82
2018-07-08T07:19:48.872Z,995.82
2018-07-08T07:20:48.882Z,995.83
2018-07-08T07:21:48.899Z,995.84
2018-07-08T07:22:48.897Z,995.84
2018-07-08T07:23:48.906Z,995.82
2018-07-08T07:24:48.909Z,995.83
2018-07-08T07:25:48.920Z,995.81
2018-07-08T07:26:48.925Z,995.8
2018-07-08T07:27:48.934Z,995.81
2018-07-08T07:28:48.948Z,995.81
2018-07-08T07:29:48.962Z,995.83
2018-07-08T07:30:48.956Z,995.81
2018-07-08T07:31:48.963Z,995.77
2018-07-08T07:32:48.972Z,995.75
2018-07-08T07:33:48.981Z,995.79
2018-07-08T07:34:48.987Z,995.74
2018-07-08T07:35:48.994Z,995.77
2018-07-08T07:36:49.003Z,995.79
2018-07-08T07:37:49.012Z,995.82
2018-07-08T07:38:49.026Z,995.79
2018-07-08T07:39:49.027Z,995.84
2018-07-08T07:40:49.034Z,995.82
2018-07-08T07:41:49.042Z,995.85
2018-07-08T07:42:49.052Z,995.83
2018-07-08T07:43:49.060Z,995.81
2018-07-08T07:44:49.069Z,995.83
2018-07-08T07:45:49.085Z,995.82
2018-07-08T07:46:49.084Z,995.8
2018-07-08T07:47:49.090Z,995.8
2018-07-08T07:48:49.098Z,995.81
2018-07-08T07:49:49.109Z,995.77
2018-07-08T07:50:49.117Z,995.76
2018-07-08T07:51:49.126Z,995.78
2018-07-08T07:52:49.132Z,995.75
2018-07-08T07:53:49.143Z,995.73
2018-07-08T07:54:49.151Z,995.75
2018-07-08T07:55:49.158Z,995.75
2018-07-08T07:56:49.169Z,995.8
2018-07-08T07:57:49.172Z,995.79
2018-07-08T07:58:49.188Z,995.79
2018-07-08T07:59:49.204Z,995.82
2018-07-08T08:00:49.206Z,995.76
2018-07-08T08:01:49.209Z,995.75
2018-07-08T08:02:49.219Z,995.76
2018-07-08T08:03:49.229Z,995.77
2018-07-08T08:04:49.241Z,995.77
2018-07-08T08:05:49.241Z,995.76
2018-07-08T08:06:49.247Z,995.74
2018-07-08T08:07:49.267Z,995.73
2018-07-08T08:08:49.276Z,995.73
2018-07-08T08:09:49.274Z,995.69
2018-07-08T08:10:49.340Z,995.68
2018-07-08T08:11:49.300Z,995.69
2018-07-08T08:12:49.359Z,995.71
2018-07-08T08:13:49.324Z,995.72
2018-07-08T08:14:49.315Z,995.71
2018-07-08T08:15:49.337Z,995.7
2018-07-08T08:16:49.331Z,995.69
2018-07-08T08:17:49.339Z,995.69
2018-07-08T08:18:49.362Z,995.65
2018-07-08T08:19:49.362Z,995.65
2018-07-08T08:20:49.373Z,995.68
2018-07-08T08:21:49.376Z,995.68
2018-07-08T08:22:49.386Z,995.68
2018-07-08T08:23:49.391Z,995.7
2018-07-08T08:24:49.397Z,995.65
2018-07-08T08:25:49.406Z,995.67
2018-07-08T08:26:49.471Z,995.64
2018-07-08T08:27:49.422Z,995.69
2018-07-08T08:28:49.431Z,995.65
2018-07-08T08:29:49.439Z,995.68
2018-07-08T08:30:49.466Z,995.66
2018-07-08T08:31:49.455Z,995.7
2018-07-08T08:32:49.477Z,995.66
2018-07-08T08:33:49.478Z,995.67
2018-07-08T08:34:49.478Z,995.65
2018-07-08T08:35:49.489Z,995.62
2018-07-08T08:36:49.496Z,995.61
2018-07-08T08:37:49.504Z,995.65
2018-07-08T08:38:49.509Z,995.62
2018-07-08T08:39:49.519Z,995.6
2018-07-08T08:40:49.528Z,995.64
2018-07-08T08:41:49.545Z,995.64
2018-07-08T08:42:49.543Z,995.64
2018-07-08T08:43:49.551Z,995.65
2018-07-08T08:44:49.563Z,995.63
2018-07-08T08:45:49.581Z,995.67
2018-07-08T08:46:49.574Z,995.7
2018-07-08T08:47:49.583Z,995.67
2018-07-08T08:48:49.590Z,995.68
2018-07-08T08:49:49.598Z,995.63
2018-07-08T08:50:49.605Z,995.68
2018-07-08T08:51:49.615Z,995.71
2018-07-08T08:52:49.630Z,995.66
2018-07-08T08:53:49.634Z,995.73
2018-07-08T08:54:49.636Z,995.76
2018-07-08T08:55:49.650Z,995.7
2018-07-08T08:56:49.652Z,995.74
2018-07-08T08:57:49.657Z,995.73
2018-07-08T08:58:49.667Z,995.66
2018-07-08T08:59:49.673Z,995.73
2018-07-08T09:00:49.701Z,995.68
2018-07-08T09:01:49.701Z,995.71
2018-07-08T09:02:49.699Z,995.73
2018-07-08T09:03:49.827Z,995.71
2018-07-08T09:04:49.712Z,995.68
2018-07-08T09:05:49.724Z,995.69
2018-07-08T09:06:49.740Z,995.74
2018-07-08T09:07:49.740Z,995.69
2018-07-08T09:08:49.754Z,995.67
2018-07-08T09:09:49.766Z,995.66
2018-07-08T09:10:49.858Z,995.62
2018-07-08T09:11:49.776Z,995.62
2018-07-08T09:12:49.783Z,995.61
2018-07-08T09:13:49.780Z,995.64
2018-07-08T09:14:49.793Z,995.59
2018-07-08T09:15:49.815Z,995.57
2018-07-08T09:16:49.812Z,995.55
2018-07-08T09:17:49.811Z,995.49
2018-07-08T09:18:49.845Z,995.52
2018-07-08T09:19:49.831Z,995.56
2018-07-08T09:20:49.845Z,995.51
2018-07-08T09:21:49.833Z,995.48
2018-07-08T09:22:49.849Z,995.52
2018-07-08T09:23:49.929Z,995.55
2018-07-08T09:24:51.464Z,995.53
2018-07-08T09:25:49.873Z,995.54
2018-07-08T09:26:49.878Z,995.51
2018-07-08T09:27:49.882Z,995.55
2018-07-08T09:28:49.900Z,995.52
2018-07-08T09:29:49.891Z,995.55
2018-07-08T09:30:49.890Z,995.54
2018-07-08T09:31:49.891Z,995.56
2018-07-08T09:32:49.917Z,995.53
2018-07-08T09:33:49.913Z,995.56
2018-07-08T09:34:49.913Z,995.59
2018-07-08T09:35:49.917Z,995.55
2018-07-08T09:36:49.927Z,995.63
2018-07-08T09:37:49.925Z,995.61
2018-07-08T09:38:50.029Z,995.68
2018-07-08T09:39:49.956Z,995.59
2018-07-08T09:40:49.951Z,995.6
2018-07-08T09:41:49.954Z,995.65
2018-07-08T09:42:49.953Z,995.62
2018-07-08T09:43:49.956Z,995.61
2018-07-08T09:44:49.958Z,995.61
2018-07-08T09:45:49.987Z,995.66
2018-07-08T09:46:49.977Z,995.62
2018-07-08T09:47:49.978Z,995.63
2018-07-08T09:48:49.990Z,995.61
2018-07-08T09:49:49.996Z,995.6
2018-07-08T09:50:49.989Z,995.62
2018-07-08T09:51:49.993Z,995.62
2018-07-08T09:52:49.997Z,995.56
2018-07-08T09:53:50.003Z,995.55
2018-07-08T09:54:50.013Z,995.6
2018-07-08T09:55:50.015Z,995.63
2018-07-08T09:56:50.017Z,995.57
2018-07-08T09:57:50.020Z,995.61
2018-07-08T09:58:50.033Z,995.59
2018-07-08T09:59:50.035Z,995.57
2018-07-08T10:00:50.038Z,995.61
2018-07-08T10:01:50.055Z,995.65
2018-07-08T10:02:50.059Z,995.57
2018-07-08T10:03:50.051Z,995.65
2018-07-08T10:04:50.134Z,995.65
2018-07-08T10:05:50.067Z,995.65
2018-07-08T10:06:50.068Z,995.66
2018-07-08T10:07:50.090Z,995.62
2018-07-08T10:08:50.165Z,995.57
2018-07-08T10:09:50.088Z,995.59
2018-07-08T10:10:50.130Z,995.59
2018-07-08T10:11:50.114Z,995.57
2018-07-08T10:12:50.102Z,995.61
2018-07-08T10:13:50.153Z,995.59
2018-07-08T10:14:50.108Z,995.62
2018-07-08T10:15:50.116Z,995.6
2018-07-08T10:16:50.119Z,995.65
2018-07-08T10:17:50.184Z,995.61
2018-07-08T10:18:50.125Z,995.68
2018-07-08T10:19:50.283Z,995.62
2018-07-08T10:20:50.133Z,995.64
2018-07-08T10:21:50.140Z,995.7
2018-07-08T10:22:50.145Z,995.64
2018-07-08T10:54:05.206Z,995.62
2018-07-08T10:55:05.221Z,995.59
2018-07-08T10:56:05.208Z,995.58
2018-07-08T10:57:05.208Z,995.57
2018-07-08T10:58:05.213Z,995.51
2018-07-08T10:59:05.215Z,995.49
2018-07-08T11:00:05.216Z,995.45
2018-07-08T11:01:05.218Z,995.49
2018-07-08T11:02:05.224Z,995.43
2018-07-08T11:03:05.237Z,995.47
2018-07-08T11:04:05.232Z,995.53
2018-07-08T11:05:05.237Z,995.53
2018-07-08T11:06:05.234Z,995.54
2018-07-08T11:07:05.262Z,995.54
2018-07-08T11:08:05.325Z,995.49
2018-07-08T11:09:05.330Z,995.45
2018-07-08T11:10:05.252Z,995.48
2018-07-08T11:11:05.259Z,995.49
2018-07-08T11:12:05.263Z,995.42
2018-07-08T11:13:05.266Z,995.45
2018-07-08T11:14:06.070Z,995.39
2018-07-08T11:15:05.277Z,995.36
2018-07-08T11:16:05.279Z,995.41
2018-07-08T11:17:05.287Z,995.35
2018-07-08T11:18:05.287Z,995.3
2018-07-08T11:19:05.291Z,995.35
2018-07-08T11:20:05.303Z,995.34
2018-07-08T11:21:05.301Z,995.32
2018-07-08T11:22:05.305Z,995.3
2018-07-08T11:23:05.308Z,995.31
2018-07-08T11:24:05.314Z,995.25
2018-07-08T11:25:05.321Z,995.3
2018-07-08T11:26:05.322Z,995.37
2018-07-08T11:27:05.329Z,995.37
2018-07-08T11:28:05.334Z,995.39
2018-07-08T11:29:05.338Z,995.32
2018-07-08T11:30:05.341Z,995.4
2018-07-08T11:31:05.348Z,995.32
2018-07-08T11:32:05.353Z,995.33
2018-07-08T11:33:05.366Z,995.28
2018-07-08T11:34:05.362Z,995.25
2018-07-08T11:35:05.374Z,995.23
2018-07-08T11:36:05.382Z,995.23
2018-07-08T11:37:05.382Z,995.21
2018-07-08T11:38:05.384Z,995.17
2018-07-08T11:39:05.389Z,995.17
2018-07-08T11:40:05.409Z,995.23
2018-07-08T11:41:05.393Z,995.27
2018-07-08T11:42:05.399Z,995.17
2018-07-08T11:43:05.405Z,995.18
2018-07-08T11:44:05.411Z,995.22
2018-07-08T11:45:05.414Z,995.27
2018-07-08T11:46:05.419Z,995.22
2018-07-08T11:47:05.433Z,995.19
2018-07-08T11:48:05.428Z,995.2
2018-07-08T11:49:05.435Z,995.22
2018-07-08T11:50:05.438Z,995.21
2018-07-08T11:51:05.444Z,995.22
2018-07-08T11:52:05.458Z,995.18
2018-07-08T11:53:05.461Z,995.19
2018-07-08T11:54:05.461Z,995.11
2018-07-08T11:55:05.464Z,995.16
2018-07-08T11:56:05.470Z,995.12
2018-07-08T11:57:05.474Z,995.14
2018-07-08T11:58:05.477Z,995.15
2018-07-08T11:59:05.486Z,995.13
2018-07-08T12:00:05.491Z,995.18
2018-07-08T12:01:05.501Z,995.16
2018-07-08T12:02:05.500Z,995.18
2018-07-08T12:03:05.504Z,995.2
2018-07-08T12:04:05.506Z,995.18
2018-07-08T12:05:05.531Z,995.18
2018-07-08T12:06:05.521Z,995.12
2018-07-08T12:07:05.612Z,995.08
2018-07-08T12:08:05.530Z,995.14
2018-07-08T12:09:05.535Z,995.07
2018-07-08T12:10:05.536Z,995
2018-07-08T12:11:05.544Z,995.02
2018-07-08T12:12:05.549Z,994.99
2018-07-08T12:13:05.557Z,995.01
2018-07-08T12:14:05.558Z,995.1
2018-07-08T12:15:05.566Z,995.09
2018-07-08T12:16:05.575Z,995.07
2018-07-08T12:17:05.589Z,995.08
2018-07-08T12:18:05.581Z,995.16
2018-07-08T12:19:05.656Z,995.11
2018-07-08T12:20:05.594Z,995.12
2018-07-08T12:21:05.614Z,995.15
2018-07-08T12:22:05.645Z,995.1
2018-07-08T12:23:05.602Z,995.18
2018-07-08T12:24:08.862Z,995.1
2018-07-08T12:25:05.620Z,995.14
2018-07-08T12:26:05.616Z,995.16
2018-07-08T12:27:05.625Z,995.06
2018-07-08T12:28:05.630Z,995.01
2018-07-08T12:29:05.635Z,995.07
2018-07-08T12:30:05.640Z,995.14
2018-07-08T12:31:05.647Z,995.21
2018-07-08T12:32:05.650Z,995.17
2018-07-08T12:33:05.662Z,995.15
2018-07-08T12:34:05.664Z,995.19
2018-07-08T12:35:05.662Z,995.17
2018-07-08T12:36:05.668Z,995.14
2018-07-08T12:37:05.683Z,995.13
2018-07-08T12:38:05.684Z,995.06
2018-07-08T12:39:05.692Z,995.08
2018-07-08T12:40:05.692Z,994.99
2018-07-08T12:41:05.697Z,995.04
2018-07-08T12:42:05.714Z,994.95
2018-07-08T12:43:05.705Z,995
2018-07-08T12:44:05.759Z,995.07
2018-07-08T12:45:05.715Z,994.97
2018-07-08T12:46:05.731Z,995.03
2018-07-08T12:47:05.728Z,995.04
2018-07-08T12:48:05.729Z,995.1
2018-07-08T12:49:05.735Z,995.13
2018-07-08T12:50:05.738Z,995.1
2018-07-08T12:51:05.748Z,995.06
2018-07-08T12:52:05.751Z,995.11
2018-07-08T12:53:05.757Z,995.12
2018-07-08T12:54:05.761Z,995.13
2018-07-08T12:55:05.773Z,995.08
2018-07-08T12:56:05.772Z,995.05
2018-07-08T12:57:05.778Z,995.02
2018-07-08T12:58:05.781Z,994.98
2018-07-08T12:59:05.876Z,994.97
2018-07-08T13:00:05.802Z,994.98
2018-07-08T13:01:05.799Z,994.9
2018-07-08T13:02:05.808Z,994.97
2018-07-08T13:03:05.809Z,994.87
2018-07-08T13:04:05.815Z,994.93
2018-07-08T13:05:05.815Z,994.88
2018-07-08T13:06:05.820Z,994.85
2018-07-08T13:07:05.826Z,994.86
2018-07-08T13:08:05.832Z,994.81
2018-07-08T13:09:05.836Z,994.79
2018-07-08T13:10:05.843Z,994.81